Main page
METAR-TAF:

METAR-TAF

Airports :

Brussels Airport. Zaventem

Brussels, Belgium

latitude: 50-54N, longitude: 004-32E, elevation: 55 m

Current weather observation

The report was made 36 minutes ago, at 16:50 UTC
Wind 13 kt from the West/Southwest
Temperature 20°C
Humidity 53%
Pressure 1018 hPa
Visibility 10 km or more
Few clouds at a height of 4800 ft

METAR: EBBR 191650Z 25013KT 9999 FEW048 20/10 Q1018 NOSIG

Time: 19:26 (17:26 UTC)

Forecast

The report was made 6 hours and 16 minutes ago, at 11:10 UTC
Forecast valid from 19 at 12 UTC to 20 at 18 UTC
Wind 12 kt from the West/Southwest
Visibility 10 km or more
Scattered clouds at a height of 4000 ft
Probability 30% :
Temporary
from 19 at 12 UTC to 19 at 16 UTC
Wind 15 kt from the Southwest with gusts up to 25 kt

TAF: EBBR 191110Z 1912/2018 24012KT 9999 SCT040 PROB30 TEMPO 1912/1916 23015G25KT

Weather observations and forecasts of more than 4000 airports (METAR and TAF reports).

The available stations are represented by yellow and red dots on the map.

Hover mouse over dot to see the name of the station.

Then click to see weather observations and forecasts.

To change the map : click on the green buttons with a black cross to zoom in, on the green button with a dash to zoom out, or on the green arrows for adjacent maps.


METAR-TAF: